Time;durP1;ratioP1;P1;durP2;ratioP2;P2;SDS_P1;SDS_P2;PMS_P1;PMS_P2;Temp;Humidity;BMP_temperature;BMP_pressure;BME280_temperature;BME280_humidity;BME280_pressure;Samples;Min_cycle;Max_cycle;Signal;HPM_P1;HPM_P2
2021/05/01 00:02:01;;;;;;;13.80;5.35;;;461.50;1817.60;;;;;;5035062;28;20028;-77
2021/05/01 00:04:26;;;;;;;16.98;4.45;;;461.50;1817.60;;;;;;5055187;28;20349;-79
2021/05/01 00:06:52;;;;;;;13.40;3.90;;;461.60;1817.60;;;;;;5038548;28;20032;-77
2021/05/01 00:09:19;;;;;;;16.63;4.75;;;461.70;1792.00;;;;;;5056555;28;20025;-78
2021/05/01 00:11:44;;;;;;;15.82;5.93;;;461.70;1766.40;;;;;;5038737;28;20029;-79
2021/05/01 00:14:10;;;;;;;11.38;4.72;;;486.40;1740.80;;;;;;5038721;28;20032;-78
2021/05/01 00:16:36;;;;;;;11.23;4.70;;;486.40;1740.80;;;;;;5038492;28;20025;-78
2021/05/01 00:19:02;;;;;;;12.30;4.20;;;486.50;1766.40;;;;;;5037256;28;20443;-79
2021/05/01 00:21:28;;;;;;;15.88;5.15;;;486.40;1817.60;;;;;;5056822;28;20017;-78
2021/05/01 00:23:54;;;;;;;20.27;5.00;;;461.70;1817.60;;;;;;5037219;28;20143;-78
2021/05/01 00:26:20;;;;;;;12.27;4.30;;;461.70;1843.20;;;;;;5056346;28;20029;-78
2021/05/01 00:28:48;;;;;;;12.98;4.85;;;461.70;1843.20;;;;;;5038443;28;20107;-78
2021/05/01 00:31:14;;;;;;;14.07;4.38;;;461.50;1894.40;;;;;;5038305;28;20025;-76
2021/05/01 00:33:40;;;;;;;10.40;4.38;;;461.40;1945.60;;;;;;5038310;28;20032;-76
2021/05/01 00:36:06;;;;;;;14.50;4.38;;;461.40;1945.60;;;;;;5038326;28;20024;-78
2021/05/01 00:38:32;;;;;;;15.90;5.68;;;461.20;1971.20;;;;;;5055867;28;20025;-81
2021/05/01 00:40:59;;;;;;;15.13;4.47;;;461.40;1971.20;;;;;;5038272;28;20017;-80
2021/05/01 00:43:26;;;;;;;18.60;4.60;;;461.20;1996.80;;;;;;5038319;28;20028;-80
2021/05/01 00:45:52;;;;;;;17.15;6.03;;;461.20;1996.80;;;;;;5038010;28;20079;-77
2021/05/01 00:48:18;;;;;;;20.17;6.03;;;461.20;2022.40;;;;;;5037870;28;20416;-78
2021/05/01 00:50:44;;;;;;;17.25;5.03;;;461.10;1996.80;;;;;;5038082;28;20083;-78
2021/05/01 00:53:10;;;;;;;18.02;4.88;;;461.10;2022.40;;;;;;5037695;28;20055;-77
2021/05/01 00:55:36;;;;;;;20.13;4.80;;;461.10;2048.00;;;;;;5055840;28;20025;-80
2021/05/01 00:58:03;;;;;;;17.58;6.13;;;461.30;2073.60;;;;;;5038071;28;20017;-75
2021/05/01 01:03:09;;;;;;;14.25;5.70;;;461.10;2073.60;;;;;;5055663;28;20031;-80
2021/05/01 01:05:35;;;;;;;12.30;5.22;;;461.00;2099.20;;;;;;5037458;28;20032;-79
2021/05/01 01:08:01;;;;;;;13.43;5.15;;;461.10;2073.60;;;;;;5055548;28;20029;-80
2021/05/01 01:10:27;;;;;;;10.80;5.00;;;461.10;2099.20;;;;;;5037758;28;20056;-78
2021/05/01 01:12:53;;;;;;;20.55;4.90;;;461.30;2099.20;;;;;;5037326;28;20078;-77
2021/05/01 01:15:26;;;;;;;15.05;5.28;;;461.10;2099.20;;;;;;5036458;28;20064;-77
2021/05/01 01:17:53;;;;;;;9.95;4.78;;;461.10;2099.20;;;;;;5037577;28;20051;-78
2021/05/01 01:20:19;;;;;;;20.45;7.00;;;461.30;2124.80;;;;;;5055207;28;20457;-78
2021/05/01 01:22:45;;;;;;;12.10;4.57;;;461.70;2124.80;;;;;;5037505;28;20143;-78
2021/05/01 01:25:11;;;;;;;11.93;4.85;;;435.80;2073.60;;;;;;5037913;28;20337;-77
2021/05/01 01:27:38;;;;;;;11.27;4.82;;;461.00;2150.40;;;;;;5037046;28;20021;-77
2021/05/01 01:30:07;;;;;;;10.52;4.20;;;460.80;2150.40;;;;;;5037143;28;20342;-79
2021/05/01 01:32:32;;;;;;;14.15;5.35;;;461.00;2176.00;;;;;;5037296;28;20024;-78
2021/05/01 01:34:59;;;;;;;14.10;5.63;;;460.80;2176.00;;;;;;5036941;28;20155;-79
2021/05/01 01:37:24;;;;;;;11.07;4.55;;;460.90;2176.00;;;;;;5037151;28;20032;-77
2021/05/01 01:39:50;;;;;;;17.77;5.80;;;461.10;2201.60;;;;;;5054001;28;20021;-79
2021/05/01 01:42:16;;;;;;;12.68;4.63;;;461.00;2176.00;;;;;;5036844;28;20017;-78
2021/05/01 01:44:42;;;;;;;14.50;4.88;;;460.90;2176.00;;;;;;5037060;28;20017;-79
2021/05/01 01:47:07;;;;;;;14.63;5.00;;;460.80;2227.20;;;;;;5036856;28;20395;-76
2021/05/01 01:49:35;;;;;;;14.35;5.55;;;461.00;2227.20;;;;;;5034654;28;20017;-78
2021/05/01 01:52:01;;;;;;;16.13;5.18;;;461.00;2252.80;;;;;;5036604;28;20048;-78
2021/05/01 01:54:26;;;;;;;20.00;5.53;;;460.80;2278.40;;;;;;5049960;28;20367;-77
2021/05/01 01:56:52;;;;;;;14.70;6.05;;;460.80;2304.00;;;;;;5050759;28;20063;-79
2021/05/01 01:59:18;;;;;;;17.58;6.13;;;436.10;2304.00;;;;;;5053030;28;20032;-78
2021/05/01 02:01:44;;;;;;;20.40;6.30;;;436.10;2304.00;;;;;;5052484;28;20031;-78
2021/05/01 02:04:10;;;;;;;16.00;5.32;;;436.10;2329.60;;;;;;5033013;28;20070;-78
2021/05/01 02:06:36;;;;;;;18.20;7.05;;;436.10;2355.20;;;;;;5033955;28;20041;-79
2021/05/01 02:09:02;;;;;;;16.45;7.50;;;435.90;2355.20;;;;;;5032104;28;20021;-78
2021/05/01 02:11:28;;;;;;;18.55;6.25;;;436.10;2329.60;;;;;;5049550;28;20017;-78
2021/05/01 02:13:54;;;;;;;13.88;5.65;;;436.10;2355.20;;;;;;5052370;28;20365;-77
2021/05/01 02:16:20;;;;;;;17.75;5.72;;;460.80;2355.20;;;;;;5033087;28;20457;-77
2021/05/01 02:18:45;;;;;;;16.75;6.80;;;436.10;2355.20;;;;;;5049948;28;20024;-80
2021/05/01 02:21:11;;;;;;;14.38;5.95;;;436.10;2329.60;;;;;;5032178;28;20017;-77
2021/05/01 02:23:38;;;;;;;10.82;4.90;;;436.10;2355.20;;;;;;5031467;28;20070;-80
2021/05/01 02:26:04;;;;;;;23.42;6.35;;;436.10;2355.20;;;;;;5048301;28;20064;-79
2021/05/01 02:28:30;;;;;;;22.15;8.90;;;460.80;2380.80;;;;;;5034721;28;20049;-76
2021/05/01 02:30:56;;;;;;;24.17;8.70;;;436.00;2355.20;;;;;;5034000;28;20495;-78
2021/05/01 02:33:22;;;;;;;20.83;8.63;;;436.10;2355.20;;;;;;5034512;28;20108;-78
2021/05/01 02:35:48;;;;;;;22.60;8.93;;;436.10;2355.20;;;;;;5033235;28;20082;-77
2021/05/01 02:38:14;;;;;;;16.90;8.20;;;436.00;2355.20;;;;;;5035221;28;20028;-78
2021/05/01 02:40:39;;;;;;;18.80;7.35;;;460.80;2380.80;;;;;;5034455;28;20021;-77
2021/05/01 02:43:07;;;;;;;20.02;6.45;;;460.80;2380.80;;;;;;5035870;28;20025;-75
2021/05/01 02:45:34;;;;;;;16.42;7.07;;;436.10;2355.20;;;;;;5036417;28;20126;-77
2021/05/01 02:48:01;;;;;;;17.63;6.15;;;435.80;2355.20;;;;;;5036064;28;20052;-76
2021/05/01 02:50:27;;;;;;;21.38;6.03;;;435.80;2355.20;;;;;;5035727;28;20043;-78
2021/05/01 02:52:53;;;;;;;16.77;7.10;;;435.80;2355.20;;;;;;5034440;28;20048;-79
2021/05/01 02:55:19;;;;;;;23.40;6.82;;;435.90;2355.20;;;;;;5054417;28;20399;-80
2021/05/01 02:57:45;;;;;;;16.27;6.78;;;436.10;2355.20;;;;;;5034747;28;20035;-77
2021/05/01 03:00:14;;;;;;;18.05;6.43;;;435.90;2355.20;;;;;;5054388;28;20356;-79
2021/05/01 03:02:40;;;;;;;15.30;6.55;;;435.90;2355.20;;;;;;5035856;28;20079;-77
2021/05/01 03:05:07;;;;;;;23.77;5.63;;;435.80;2355.20;;;;;;5035869;28;20024;-79
2021/05/01 03:07:33;;;;;;;17.92;6.63;;;436.00;2355.20;;;;;;5035892;28;20071;-79
2021/05/01 03:09:59;;;;;;;23.33;9.20;;;435.80;2355.20;;;;;;5053828;28;20028;-78
2021/05/01 03:12:25;;;;;;;55.33;31.15;;;435.70;2355.20;;;;;;5035585;28;20024;-80
2021/05/01 03:14:51;;;;;;;37.72;17.42;;;435.60;2355.20;;;;;;5036797;28;20390;-80
2021/05/01 03:17:17;;;;;;;78.38;40.92;;;435.60;2355.20;;;;;;5035807;28;20029;-80
2021/05/01 03:19:43;;;;;;;130.85;77.15;;;435.50;2355.20;;;;;;5034451;28;20028;-79
2021/05/01 03:22:09;;;;;;;133.18;79.32;;;435.60;2355.20;;;;;;5035644;28;20025;-77
2021/05/01 03:24:35;;;;;;;144.10;86.72;;;435.60;2355.20;;;;;;5052412;28;20082;-76
2021/05/01 03:27:01;;;;;;;126.57;78.38;;;435.60;2355.20;;;;;;5035198;28;20032;-77
2021/05/01 03:29:27;;;;;;;109.00;64.80;;;435.70;2355.20;;;;;;5035733;28;20048;-78
2021/05/01 03:31:53;;;;;;;89.97;54.63;;;435.80;2355.20;;;;;;5036201;28;20360;-79
2021/05/01 03:34:19;;;;;;;82.30;47.20;;;435.70;2355.20;;;;;;5035606;28;20024;-80
2021/05/01 03:36:45;;;;;;;77.65;47.00;;;435.50;2355.20;;;;;;5035538;28;20368;-78
2021/05/01 03:39:11;;;;;;;79.35;44.38;;;435.70;2355.20;;;;;;5037239;28;20088;-78
2021/05/01 03:41:37;;;;;;;66.32;38.17;;;435.60;2355.20;;;;;;5057080;28;20028;-78
2021/05/01 03:44:03;;;;;;;68.55;39.65;;;435.50;2355.20;;;;;;5039584;28;20017;-81
2021/05/01 03:46:29;;;;;;;57.28;35.40;;;435.40;2355.20;;;;;;5038933;28;20082;-77
2021/05/01 03:48:55;;;;;;;54.72;29.15;;;435.40;2355.20;;;;;;5038941;28;20025;-77
2021/05/01 03:51:21;;;;;;;51.78;25.45;;;435.50;2355.20;;;;;;5039144;28;20056;-79
2021/05/01 03:53:47;;;;;;;34.17;19.67;;;435.60;2355.20;;;;;;5038689;28;20071;-80
2021/05/01 03:56:13;;;;;;;30.67;15.32;;;435.70;2355.20;;;;;;5039376;28;20438;-77
2021/05/01 03:58:38;;;;;;;34.80;18.63;;;435.40;2355.20;;;;;;5039029;28;20341;-80
2021/05/01 04:01:04;;;;;;;30.92;16.52;;;435.50;2355.20;;;;;;5038789;28;20052;-81
2021/05/01 04:03:30;;;;;;;30.60;14.95;;;435.40;2355.20;;;;;;5038940;28;20445;-77
2021/05/01 04:05:56;;;;;;;30.02;14.68;;;435.40;2355.20;;;;;;5038857;28;20025;-79
2021/05/01 04:08:22;;;;;;;32.78;15.32;;;435.20;2355.20;;;;;;5038638;28;20021;-78
2021/05/01 04:10:48;;;;;;;30.48;14.32;;;435.40;2355.20;;;;;;5056732;28;20059;-79
2021/05/01 04:13:13;;;;;;;22.50;12.98;;;435.30;2355.20;;;;;;5038785;28;20017;-79
2021/05/01 04:15:39;;;;;;;22.95;12.82;;;435.20;2355.20;;;;;;5038368;28;20174;-78
2021/05/01 04:18:10;;;;;;;29.60;15.35;;;435.20;2355.20;;;;;;5056356;28;20045;-78
2021/05/01 04:20:36;;;;;;;29.55;14.02;;;435.20;2355.20;;;;;;5038749;28;20072;-79
2021/05/01 04:23:02;;;;;;;33.97;14.23;;;435.20;2355.20;;;;;;5055964;28;20114;-78
2021/05/01 04:25:28;;;;;;;24.05;12.23;;;435.20;2355.20;;;;;;5038550;28;20383;-78
2021/05/01 04:27:53;;;;;;;30.40;14.73;;;410.50;2355.20;;;;;;5038305;28;20023;-79
2021/05/01 04:30:19;;;;;;;28.65;13.07;;;435.30;2355.20;;;;;;5038479;28;20026;-77
2021/05/01 04:32:45;;;;;;;27.45;12.18;;;435.40;2355.20;;;;;;5056368;28;20108;-78
2021/05/01 04:35:11;;;;;;;23.17;10.88;;;435.40;2355.20;;;;;;5037961;28;20461;-77
2021/05/01 04:37:37;;;;;;;22.70;11.15;;;435.30;2355.20;;;;;;5038380;28;20361;-80
2021/05/01 04:40:04;;;;;;;24.95;10.27;;;435.30;2355.20;;;;;;5038471;28;20048;-78
2021/05/01 04:42:30;;;;;;;24.95;11.63;;;435.30;2355.20;;;;;;5038416;28;20364;-80
2021/05/01 04:44:56;;;;;;;24.23;11.95;;;435.50;2355.20;;;;;;5056446;28;20104;-81
2021/05/01 04:47:21;;;;;;;26.27;14.38;;;435.30;2355.20;;;;;;5056001;28;20057;-80
2021/05/01 04:49:47;;;;;;;21.98;12.65;;;435.50;2355.20;;;;;;5037631;28;20021;-79
2021/05/01 04:52:13;;;;;;;26.92;15.00;;;435.30;2355.20;;;;;;5038552;28;20040;-80
2021/05/01 04:54:39;;;;;;;21.83;12.63;;;435.40;2355.20;;;;;;5056252;28;20591;-80
2021/05/01 04:57:05;;;;;;;25.08;12.57;;;435.50;2355.20;;;;;;5055724;28;20067;-79
2021/05/01 04:59:31;;;;;;;22.77;11.95;;;435.40;2355.20;;;;;;5038091;28;20467;-81
2021/05/01 05:01:57;;;;;;;26.73;14.40;;;435.60;2355.20;;;;;;5037971;28;20028;-79
2021/05/01 05:04:22;;;;;;;24.95;12.00;;;435.50;2355.20;;;;;;5037642;28;20024;-79
2021/05/01 05:06:48;;;;;;;24.30;13.40;;;435.60;2355.20;;;;;;5037901;28;20036;-78
2021/05/01 05:09:14;;;;;;;27.55;11.38;;;435.60;2355.20;;;;;;5038239;28;20031;-79
2021/05/01 05:11:40;;;;;;;28.25;12.07;;;435.70;2355.20;;;;;;5037499;28;20028;-80
2021/05/01 05:14:06;;;;;;;29.27;11.25;;;435.90;2355.20;;;;;;5055884;28;20025;-81
2021/05/01 05:16:33;;;;;;;25.13;8.93;;;435.90;2355.20;;;;;;5037842;28;20035;-80
2021/05/01 05:18:59;;;;;;;21.50;8.10;;;435.90;2355.20;;;;;;5037491;28;20082;-76
2021/05/01 05:21:25;;;;;;;18.85;8.75;;;435.90;2355.20;;;;;;5038165;28;20029;-78
2021/05/01 05:23:50;;;;;;;25.80;9.27;;;436.00;2355.20;;;;;;5037296;28;20445;-82
2021/05/01 05:26:17;;;;;;;19.70;8.98;;;436.00;2355.20;;;;;;5037441;28;20409;-81
2021/05/01 05:28:42;;;;;;;31.23;13.43;;;436.10;2355.20;;;;;;5037468;28;20023;-79
2021/05/01 05:31:08;;;;;;;30.33;16.70;;;460.80;2380.80;;;;;;5054763;28;20092;-77
2021/05/01 05:33:34;;;;;;;34.70;16.85;;;460.80;2380.80;;;;;;5054938;28;20021;-80
2021/05/01 05:36:00;;;;;;;28.75;13.10;;;460.80;2380.80;;;;;;5037170;28;20021;-80
2021/05/01 05:38:26;;;;;;;35.45;11.82;;;460.90;2380.80;;;;;;5054862;28;20054;-79
2021/05/01 05:40:52;;;;;;;32.45;16.48;;;460.80;2380.80;;;;;;5054288;28;20461;-79
2021/05/01 05:43:18;;;;;;;24.15;13.95;;;460.80;2380.80;;;;;;5036881;28;20032;-80
2021/05/01 05:45:46;;;;;;;36.67;21.17;;;436.10;2355.20;;;;;;5037221;28;20033;-80
2021/05/01 05:48:12;;;;;;;34.35;18.83;;;436.10;2355.20;;;;;;5054970;28;20024;-76
2021/05/01 05:50:38;;;;;;;31.48;13.45;;;435.90;2355.20;;;;;;5036441;28;20017;-78
2021/05/01 05:53:04;;;;;;;26.13;14.85;;;435.80;2355.20;;;;;;5053797;28;20044;-79
2021/05/01 05:55:30;;;;;;;46.28;25.10;;;435.70;2355.20;;;;;;5036405;28;20036;-83
2021/05/01 05:57:56;;;;;;;36.67;21.00;;;435.60;2355.20;;;;;;5036690;28;20021;-81
2021/05/01 06:00:24;;;;;;;38.63;20.15;;;435.60;2355.20;;;;;;5036622;28;20063;-78
2021/05/01 06:02:52;;;;;;;37.67;21.42;;;435.60;2355.20;;;;;;5054030;28;20441;-77
2021/05/01 06:05:37;;;;;;;37.40;17.42;;;435.80;2355.20;;;;;;5053935;28;20048;-78
2021/05/01 06:08:06;;;;;;;35.33;16.48;;;435.80;2355.20;;;;;;5035870;28;20052;-79
2021/05/01 06:10:33;;;;;;;35.20;16.00;;;435.80;2355.20;;;;;;5035936;28;20449;-83
2021/05/01 06:13:01;;;;;;;33.63;14.13;;;435.70;2355.20;;;;;;5036167;28;20021;-79
2021/05/01 06:15:27;;;;;;;37.60;15.88;;;435.70;2355.20;;;;;;5036464;28;20025;-80
2021/05/01 06:18:00;;;;;;;28.05;13.98;;;435.70;2355.20;;;;;;5054393;28;20536;-78
2021/05/01 06:20:28;;;;;;;37.47;16.92;;;435.90;2355.20;;;;;;5054107;28;20070;-77
2021/05/01 06:22:54;;;;;;;44.78;21.17;;;436.00;2355.20;;;;;;5036518;28;20032;-80
2021/05/01 06:25:24;;;;;;;42.22;24.10;;;435.90;2355.20;;;;;;5036415;28;20051;-79
2021/05/01 06:27:52;;;;;;;37.67;18.33;;;435.80;2355.20;;;;;;5036359;28;20112;-78
2021/05/01 06:30:18;;;;;;;48.88;21.05;;;435.80;2355.20;;;;;;5036457;28;20056;-77
2021/05/01 06:32:46;;;;;;;38.17;20.75;;;435.80;2355.20;;;;;;5036322;28;20106;-79
2021/05/01 06:35:12;;;;;;;41.00;18.88;;;436.10;2355.20;;;;;;5053783;28;20511;-79
2021/05/01 06:37:41;;;;;;;38.55;19.65;;;436.00;2355.20;;;;;;5036136;28;20028;-77
2021/05/01 06:40:20;;;;;;;36.83;18.95;;;436.10;2355.20;;;;;;5036115;28;20028;-77
2021/05/01 06:43:00;;;;;;;43.35;22.13;;;460.80;2380.80;;;;;;5053990;28;20025;-76
2021/05/01 06:45:27;;;;;;;53.90;27.15;;;460.80;2380.80;;;;;;5036866;28;20021;-73
2021/05/01 06:47:56;;;;;;;47.45;21.83;;;486.40;2380.80;;;;;;5035622;28;20017;-73
2021/05/01 06:50:26;;;;;;;36.65;19.27;;;460.90;2380.80;;;;;;5034942;28;20509;-75
2021/05/01 06:52:52;;;;;;;49.83;22.83;;;461.00;2380.80;;;;;;5047525;28;20051;-76
2021/05/01 06:55:20;;;;;;;43.90;20.85;;;461.10;2380.80;;;;;;5054432;28;20021;-74
2021/05/01 06:57:51;;;;;;;44.20;21.65;;;461.00;2380.80;;;;;;5056347;28;20023;-76
2021/05/01 07:00:19;;;;;;;41.17;21.13;;;461.10;2380.80;;;;;;5055905;28;20020;-76
2021/05/01 07:03:04;;;;;;;48.25;25.33;;;461.10;2380.80;;;;;;5073414;28;20025;-75
2021/05/01 07:05:31;;;;;;;48.65;29.80;;;461.00;2380.80;;;;;;5055452;28;20031;-77
2021/05/01 07:07:57;;;;;;;60.45;36.75;;;461.20;2380.80;;;;;;5055669;28;20029;-75
2021/05/01 07:10:23;;;;;;;62.58;41.25;;;461.30;2380.80;;;;;;5073428;28;20040;-76
2021/05/01 07:12:49;;;;;;;83.25;43.47;;;461.30;2380.80;;;;;;5055674;28;20452;-77
2021/05/01 07:15:17;;;;;;;60.15;34.83;;;461.30;2380.80;;;;;;5077296;28;20153;-75
2021/05/01 07:17:45;;;;;;;36.85;22.73;;;461.30;2380.80;;;;;;5059553;28;20527;-80
2021/05/01 07:20:12;;;;;;;38.75;22.42;;;461.10;2380.80;;;;;;5058704;28;20024;-78
2021/05/01 07:22:39;;;;;;;37.90;19.20;;;461.20;2380.80;;;;;;5059772;28;20020;-80
2021/05/01 07:25:09;;;;;;;44.72;22.73;;;461.30;2380.80;;;;;;5059034;28;20047;-81
2021/05/01 07:27:53;;;;;;;38.10;22.33;;;461.10;2380.80;;;;;;5059700;28;20069;-81
2021/05/01 07:30:22;;;;;;;44.22;27.85;;;461.20;2380.80;;;;;;5076842;28;20024;-80
2021/05/01 07:32:51;;;;;;;52.03;28.45;;;461.20;2380.80;;;;;;5077351;28;20023;-80
2021/05/01 07:35:19;;;;;;;47.72;26.90;;;461.40;2380.80;;;;;;5058938;28;20345;-80
2021/05/01 07:37:49;;;;;;;55.85;30.10;;;461.40;2380.80;;;;;;5060232;28;20031;-80
2021/05/01 07:40:24;;;;;;;58.17;30.83;;;461.50;2380.80;;;;;;5078795;28;20024;-83
2021/05/01 07:42:51;;;;;;;56.67;31.88;;;461.60;2380.80;;;;;;5060769;28;20028;-80
2021/05/01 07:45:22;;;;;;;59.35;33.95;;;486.40;2380.80;;;;;;5059210;28;20145;-80
2021/05/01 07:47:56;;;;;;;53.80;28.92;;;486.50;2380.80;;;;;;5059631;28;20036;-78
2021/05/01 07:50:26;;;;;;;38.65;21.23;;;486.60;2380.80;;;;;;5058368;28;20024;-82
2021/05/01 07:52:54;;;;;;;25.52;15.85;;;486.70;2380.80;;;;;;5058767;28;20044;-80
2021/05/01 07:55:21;;;;;;;27.45;12.40;;;486.80;2380.80;;;;;;5057184;28;20024;-81
2021/05/01 07:57:48;;;;;;;25.13;10.38;;;486.80;2380.80;;;;;;5059062;28;20020;-79
2021/05/01 08:00:16;;;;;;;25.13;9.68;;;486.90;2380.80;;;;;;5058388;28;20027;-81
2021/05/01 08:02:42;;;;;;;23.73;9.65;;;487.00;2380.80;;;;;;5075447;28;20032;-78
2021/05/01 08:05:10;;;;;;;20.63;10.77;;;487.10;2380.80;;;;;;5058941;28;20363;-79
2021/05/01 08:07:36;;;;;;;22.33;10.35;;;486.80;2380.80;;;;;;5058875;28;20058;-78
2021/05/01 08:10:03;;;;;;;21.70;11.15;;;487.20;2380.80;;;;;;5058806;28;20020;-78
2021/05/01 08:12:28;;;;;;;27.08;12.40;;;487.30;2380.80;;;;;;5058830;28;20022;-82
2021/05/01 08:14:54;;;;;;;33.50;14.52;;;487.30;2380.80;;;;;;5058844;28;20119;-80
2021/05/01 08:17:20;;;;;;;39.22;14.32;;;512.00;2380.80;;;;;;5058718;28;20028;-81
2021/05/01 08:19:46;;;;;;;28.40;13.82;;;512.10;2380.80;;;;;;5075548;28;20070;-80
2021/05/01 08:22:12;;;;;;;27.70;14.10;;;512.10;2380.80;;;;;;5059132;28;20082;-83
2021/05/01 08:24:38;;;;;;;27.42;13.38;;;512.20;2380.80;;;;;;5058303;28;20467;-79
2021/05/01 08:27:04;;;;;;;26.15;12.98;;;512.30;2380.80;;;;;;5058261;28;20054;-81
2021/05/01 08:29:30;;;;;;;28.70;13.95;;;512.40;2380.80;;;;;;5058554;28;20444;-79
2021/05/01 08:31:56;;;;;;;30.90;12.60;;;512.50;2380.80;;;;;;5058973;28;20020;-79
2021/05/01 08:34:21;;;;;;;25.23;12.82;;;512.70;2380.80;;;;;;5058366;28;20017;-80
2021/05/01 08:36:47;;;;;;;28.98;12.93;;;512.70;2380.80;;;;;;5058381;28;20051;-80
2021/05/01 08:39:13;;;;;;;32.90;14.73;;;512.90;2380.80;;;;;;5058496;28;20016;-84
2021/05/01 08:41:39;;;;;;;32.05;15.38;;;512.90;2380.80;;;;;;5058072;28;20394;-81
2021/05/01 08:44:10;;;;;;;41.85;19.58;;;537.60;2406.40;;;;;;5058454;28;20027;-81
2021/05/01 08:46:38;;;;;;;33.60;16.88;;;537.70;2406.40;;;;;;5058277;28;20070;-80
2021/05/01 08:49:07;;;;;;;32.45;16.05;;;537.70;2406.40;;;;;;5057010;28;20031;-82
2021/05/01 08:51:33;;;;;;;28.75;15.60;;;537.70;2406.40;;;;;;5075359;28;20024;-79
2021/05/01 08:53:59;;;;;;;34.08;17.02;;;537.90;2406.40;;;;;;5075462;28;20025;-78
2021/05/01 08:56:25;;;;;;;40.08;20.02;;;537.90;2406.40;;;;;;5057541;28;20082;-81
2021/05/01 08:59:00;;;;;;;31.50;18.00;;;538.00;2406.40;;;;;;5076189;28;20017;-80
2021/05/01 09:01:25;;;;;;;35.38;15.63;;;538.00;2406.40;;;;;;5057761;28;20028;-80
2021/05/01 09:03:52;;;;;;;32.50;14.63;;;538.10;2406.40;;;;;;5058249;28;20021;-79
2021/05/01 09:06:22;;;;;;;28.45;13.73;;;538.10;2406.40;;;;;;5057844;28;20494;-81
2021/05/01 09:08:55;;;;;;;30.00;14.32;;;538.30;2406.40;;;;;;5057429;28;20023;-81
2021/05/01 09:11:37;;;;;;;33.38;15.90;;;538.40;2406.40;;;;;;5057856;28;20029;-79
2021/05/01 09:14:23;;;;;;;39.40;18.38;;;538.40;2406.40;;;;;;5076037;28;20353;-79
2021/05/01 09:17:06;;;;;;;40.08;19.98;;;538.50;2406.40;;;;;;5057462;28;20368;-82
2021/05/01 09:19:41;;;;;;;34.63;17.90;;;538.50;2406.40;;;;;;5057813;28;20056;-83
2021/05/01 09:22:14;;;;;;;35.15;19.42;;;563.20;2432.00;;;;;;5057188;28;20024;-82
2021/05/01 09:24:43;;;;;;;34.72;19.92;;;563.90;2432.00;;;;;;5057634;28;20060;-79
2021/05/01 09:27:15;;;;;;;47.58;26.80;;;563.40;2432.00;;;;;;5055323;28;20414;-76
2021/05/01 09:29:40;;;;;;;39.10;22.00;;;563.50;2432.00;;;;;;5056884;28;20032;-76
2021/05/01 09:32:27;;;;;;;39.65;22.83;;;563.50;2432.00;;;;;;5055501;28;20020;-76
2021/05/01 09:34:54;;;;;;;37.00;19.45;;;563.50;2432.00;;;;;;5056593;28;20077;-76
2021/05/01 09:37:24;;;;;;;23.83;11.18;;;563.50;2432.00;;;;;;5055888;28;20063;-81
2021/05/01 09:39:55;;;;;;;25.13;12.63;;;563.60;2406.40;;;;;;5057134;28;20021;-81
2021/05/01 09:42:22;;;;;;;24.77;11.35;;;563.60;2432.00;;;;;;5057026;28;20052;-81
2021/05/01 09:45:18;;;;;;;28.13;11.80;;;563.60;2432.00;;;;;;5056738;28;20059;-80
2021/05/01 09:47:52;;;;;;;29.33;16.48;;;563.60;2432.00;;;;;;5057044;28;20040;-83
2021/05/01 09:50:23;;;;;;;28.40;13.48;;;563.60;2432.00;;;;;;5056450;28;20072;-80
2021/05/01 09:53:10;;;;;;;29.48;13.82;;;563.60;2432.00;;;;;;5056470;28;20048;-81
2021/05/01 09:55:51;;;;;;;31.98;15.13;;;563.60;2432.00;;;;;;5056541;28;20025;-83
2021/05/01 09:58:23;;;;;;;26.80;10.63;;;563.60;2432.00;;;;;;5057014;28;20058;-81
2021/05/01 10:00:51;;;;;;;22.60;9.98;;;563.60;2432.00;;;;;;5056964;28;20119;-82
2021/05/01 10:03:37;;;;;;;30.05;12.25;;;563.60;2432.00;;;;;;5057212;28;20399;-81
2021/05/01 10:06:06;;;;;;;27.25;13.20;;;563.60;2432.00;;;;;;5055048;28;20083;-81
2021/05/01 10:08:33;;;;;;;33.25;13.27;;;563.60;2432.00;;;;;;5056248;28;20380;-81
2021/05/01 10:11:13;;;;;;;33.38;14.82;;;563.90;2432.00;;;;;;5073578;28;20077;-76
2021/05/01 10:13:50;;;;;;;32.85;15.80;;;563.60;2432.00;;;;;;5054562;28;20078;-81
2021/05/01 10:16:18;;;;;;;33.03;13.45;;;563.60;2432.00;;;;;;5055090;28;20028;-80
2021/05/01 10:19:12;;;;;;;28.25;13.85;;;563.60;2432.00;;;;;;5054182;28;20070;-80
2021/05/01 10:21:41;;;;;;;26.42;11.85;;;563.30;2432.00;;;;;;5055909;28;20056;-80
2021/05/01 10:24:08;;;;;;;26.90;11.80;;;563.60;2432.00;;;;;;5054835;28;20020;-79
2021/05/01 10:27:01;;;;;;;23.85;12.52;;;563.60;2432.00;;;;;;5055511;28;20032;-82
2021/05/01 10:29:37;;;;;;;27.20;12.07;;;563.60;2432.00;;;;;;5054081;28;20098;-81
2021/05/01 10:32:28;;;;;;;41.42;18.00;;;563.60;2432.00;;;;;;5056266;28;20071;-81
2021/05/01 10:34:57;;;;;;;42.78;21.13;;;563.60;2432.00;;;;;;5056205;28;20052;-81
2021/05/01 10:37:30;;;;;;;38.47;19.00;;;563.70;2432.00;;;;;;5074644;28;20110;-79
2021/05/01 10:39:57;;;;;;;42.03;17.17;;;563.60;2432.00;;;;;;5074135;28;20074;-79
2021/05/01 10:42:23;;;;;;;24.60;13.20;;;563.60;2432.00;;;;;;5056101;28;20021;-80
2021/05/01 10:44:59;;;;;;;28.77;13.68;;;563.60;2432.00;;;;;;5056119;28;20505;-80
2021/05/01 10:47:26;;;;;;;24.73;12.38;;;563.60;2432.00;;;;;;5055618;28;20436;-81
2021/05/01 10:49:55;;;;;;;34.38;12.65;;;563.60;2432.00;;;;;;5074162;28;20052;-80
2021/05/01 10:52:22;;;;;;;27.50;11.68;;;563.60;2432.00;;;;;;5055975;28;20041;-80
2021/05/01 10:55:03;;;;;;;31.77;17.50;;;563.60;2432.00;;;;;;5072746;28;20055;-80
2021/05/01 10:57:30;;;;;;;48.55;24.98;;;563.70;2432.00;;;;;;5055922;28;20039;-81
2021/05/01 11:00:09;;;;;;;54.67;33.10;;;563.80;2432.00;;;;;;5073525;28;20024;-80
2021/05/01 11:02:38;;;;;;;46.80;21.38;;;563.80;2432.00;;;;;;5074023;28;20027;-80
2021/05/01 11:05:07;;;;;;;43.03;21.95;;;563.80;2432.00;;;;;;5056216;28;20021;-80
2021/05/01 11:07:52;;;;;;;56.53;38.72;;;563.90;2432.00;;;;;;5055675;28;20024;-81
2021/05/01 11:10:19;;;;;;;24.52;11.65;;;564.00;2432.00;;;;;;5055940;28;20031;-77
2021/05/01 11:12:53;;;;;;;31.17;13.43;;;563.90;2432.00;;;;;;5055563;28;20030;-76
2021/05/01 11:15:25;;;;;;;23.73;10.50;;;564.00;2432.00;;;;;;5055414;28;20032;-78
2021/05/01 11:18:05;;;;;;;21.58;10.13;;;564.00;2432.00;;;;;;5055715;28;20024;-79
2021/05/01 11:20:32;;;;;;;24.27;10.80;;;564.00;2432.00;;;;;;5056288;28;20403;-78
2021/05/01 11:22:58;;;;;;;26.90;12.63;;;564.00;2432.00;;;;;;5055325;28;20025;-79
2021/05/01 11:25:26;;;;;;;85.25;55.03;;;564.00;2432.00;;;;;;5055578;28;20024;-77
2021/05/01 11:27:53;;;;;;;41.15;19.17;;;564.10;2432.00;;;;;;5052849;28;20580;-78
2021/05/01 11:30:28;;;;;;;78.10;48.95;;;588.80;2432.00;;;;;;5055685;28;20078;-79
2021/05/01 11:32:55;;;;;;;37.78;19.88;;;588.80;2432.00;;;;;;5055708;28;20502;-78
2021/05/01 11:35:25;;;;;;;132.57;81.63;;;588.80;2432.00;;;;;;5053776;28;20016;-78
2021/05/01 11:37:55;;;;;;;79.95;49.58;;;588.80;2432.00;;;;;;5055570;28;20027;-77
2021/05/01 11:40:29;;;;;;;67.72;44.38;;;588.90;2329.60;;;;;;5055426;28;20021;-78
2021/05/01 11:42:57;;;;;;;137.70;121.00;;;589.00;2355.20;;;;;;5055272;28;20053;-78
2021/05/01 11:45:41;;;;;;;74.35;52.47;;;589.10;2304.00;;;;;;5055433;28;20420;-79
2021/05/01 11:48:11;;;;;;;73.43;42.47;;;589.10;2355.20;;;;;;5055349;28;20028;-82
2021/05/01 11:50:41;;;;;;;34.55;19.52;;;589.10;2355.20;;;;;;5054110;28;20021;-81
2021/05/01 11:53:13;;;;;;;36.15;18.67;;;589.20;2329.60;;;;;;5037917;28;20045;-78
2021/05/01 11:55:57;;;;;;;30.05;15.07;;;589.20;2304.00;;;;;;5014469;28;20052;-79
2021/05/01 11:58:32;;;;;;;28.00;13.10;;;589.30;2355.20;;;;;;5031356;28;20354;-80
2021/05/01 12:01:19;;;;;;;26.50;14.80;;;589.40;2304.00;;;;;;5016981;28;20013;-80
2021/05/01 12:04:01;;;;;;;28.40;13.13;;;589.40;2304.00;;;;;;5036005;28;20025;-78
2021/05/01 12:06:35;;;;;;;30.45;15.13;;;589.40;2329.60;;;;;;5035500;28;20025;-79
2021/05/01 12:09:27;;;;;;;43.83;25.05;;;589.40;2329.60;;;;;;5019110;28;20030;-79
2021/05/01 12:11:55;;;;;;;29.67;16.98;;;589.50;2329.60;;;;;;5012949;28;20030;-79